»·PEaware :: N1399 KRNO-KPVF

N1399 :: KRNO-KPVF

FLIGHT INFORMATION

Flight Status: Arrived
Operator: Privately registered:
United States
More flights under this callsign
Pilot: David C. (16084)
Aircraft: SOCATA TBM-900
(TBM9)
More flights by this aircraft type
Origin: KRNO Reno/Tahoe Intl
United States
Destination: KPVF Placerville
United States
More flights between these airports :: More routes between these airports
Route: RENO9 SWR V338 HNW
File this flight plan on PilotEdge
Remarks:
Altitude:
(Current/Filed)
16,000ft
Speed:
(Current/Filed)
291kts
Departed: 01-Sep-19 03:12 PM
Arrived: 01-Sep-19 03:41 PM
Distance/Time
Traveled:
66nm/0:29
Distance/Time
To Go:
Arrived

Flight Plot

Page will automatically refresh every two minutes.

Flight plan parsing failed; only flown route is shown


Map Options




Map Legend


Flown Route
Filed Route
Departure Airport
Arrival Airport
Navaid (VOR, NDB)
Fix

Horizontal Profiles

Position Reports

Time Latitude Longitude Heading Altitude Ground
Speed
01-Sep-19 14:47 39.505174 -119.765242 90 4418ft 0kts
01-Sep-19 14:48 39.505174 -119.765242 90 4418ft 0kts
01-Sep-19 14:49 39.505174 -119.765242 90 4418ft 0kts
01-Sep-19 14:50 39.505174 -119.765242 90 4418ft 0kts
01-Sep-19 14:51 39.505174 -119.765242 90 4418ft 0kts
01-Sep-19 14:52 39.505174 -119.765242 90 4418ft 0kts
01-Sep-19 14:53 39.505174 -119.765242 90 4418ft 0kts
01-Sep-19 14:54 39.505174 -119.765242 90 4418ft 0kts
01-Sep-19 14:55 39.505174 -119.765242 90 4418ft 0kts
01-Sep-19 14:56 39.505174 -119.765242 90 4418ft 0kts
01-Sep-19 14:57 39.505174 -119.765242 90 4418ft 0kts
01-Sep-19 14:58 39.505174 -119.765242 90 4418ft 0kts
01-Sep-19 14:59 39.505174 -119.765242 90 4418ft 0kts
01-Sep-19 15:00 39.505174 -119.765242 90 4418ft 0kts
01-Sep-19 15:01 39.505246 -119.765078 7 4418ft 0kts
01-Sep-19 15:02 39.506235 -119.764953 359 4418ft 3kts
01-Sep-19 15:03 39.506661 -119.765181 273 4418ft 0kts
01-Sep-19 15:04 39.506717 -119.765585 294 4418ft 4kts
01-Sep-19 15:05 39.509044 -119.765781 0 4418ft 12kts
01-Sep-19 15:06 39.512491 -119.765191 359 4418ft 15kts
01-Sep-19 15:07 39.513709 -119.768076 270 4418ft 5kts
01-Sep-19 15:08 39.513710 -119.768130 270 4418ft 0kts
01-Sep-19 15:09 39.513710 -119.768130 270 4418ft 0kts
01-Sep-19 15:10 39.513710 -119.768130 270 4418ft 0kts
01-Sep-19 15:11 39.506322 -119.769226 180 4418ft 114kts
01-Sep-19 15:12 39.465435 -119.769343 178 6144ft 160kts
01-Sep-19 15:13 39.419874 -119.769777 178 8196ft 169kts
01-Sep-19 15:14 39.372336 -119.768062 178 10221ft 175kts
01-Sep-19 15:15 39.336490 -119.795723 242 12235ft 175kts
01-Sep-19 15:16 39.316368 -119.853477 244 14254ft 179kts
01-Sep-19 15:17 39.296870 -119.913016 244 16089ft 189kts
01-Sep-19 15:18 39.272784 -119.986960 245 16135ft 246kts
01-Sep-19 15:19 39.245138 -120.071769 245 16137ft 261kts
01-Sep-19 15:20 39.216688 -120.158778 245 16134ft 264kts
01-Sep-19 15:21 39.187976 -120.246319 245 16133ft 264kts
01-Sep-19 15:22 39.138680 -120.313846 219 16126ft 263kts
01-Sep-19 15:23 39.082157 -120.373658 219 16118ft 263kts
01-Sep-19 15:24 39.025486 -120.433560 219 16105ft 263kts
01-Sep-19 15:25 38.969968 -120.492101 219 14315ft 255kts
01-Sep-19 15:26 38.915210 -120.549723 219 12287ft 255kts
01-Sep-19 15:27 38.860099 -120.607595 218 10281ft 254kts
01-Sep-19 15:28 38.810108 -120.665064 222 7526ft 233kts
01-Sep-19 15:29 38.767003 -120.725790 242 4675ft 223kts
01-Sep-19 15:30 38.735546 -120.773889 171 4448ft 143kts
01-Sep-19 15:31 38.704220 -120.744772 85 4215ft 146kts
01-Sep-19 15:32 38.727449 -120.700694 50 4301ft 150kts
01-Sep-19 15:33 38.749368 -120.708073 216 3824ft 131kts
01-Sep-19 15:34 38.729558 -120.740044 240 2795ft 115kts
01-Sep-19 15:35 38.710670 -120.769271 155 3060ft 147kts
01-Sep-19 15:36 38.706255 -120.721770 82 3615ft 147kts
01-Sep-19 15:37 38.726732 -120.686357 326 3708ft 136kts
01-Sep-19 15:38 38.735535 -120.722491 253 3231ft 96kts
01-Sep-19 15:39 38.724699 -120.752155 239 2591ft 74kts
01-Sep-19 15:40 38.722754 -120.758113 240 2587ft 9kts
01-Sep-19 15:41 38.722763 -120.760836 174 2587ft 0kts
01-Sep-19 15:42 38.722763 -120.760837 174 2587ft 0kts
01-Sep-19 15:43 38.722764 -120.760836 173 2587ft 0kts

Navigation Log

Ident Type
Flight plan parsing failed, navigation log unavailable